Time;durP1;ratioP1;P1;durP2;ratioP2;P2;SDS_P1;SDS_P2;PMS_P1;PMS_P2;Temp;Humidity;BMP_temperature;BMP_pressure;BME280_temperature;BME280_humidity;BME280_pressure;Samples;Min_cycle;Max_cycle;Signal;HPM_P1;HPM_P2
2022/04/02 00:01:21;;;;;;;;;12.25;9.00;;;;;8.51;46.06;101131.19;4944966;28;61955;-77
2022/04/02 00:03:47;;;;;;;;;11.25;11.25;;;;;8.58;46.90;101128.09;4961635;28;61732;-77
2022/04/02 00:06:13;;;;;;;;;10.00;10.00;;;;;8.56;46.88;101133.22;4964183;28;61943;-77
2022/04/02 00:08:38;;;;;;;;;6.00;6.00;;;;;8.55;46.56;101134.06;4965467;28;61707;-77
2022/04/02 00:11:10;;;;;;;;;7.25;6.00;;;;;8.57;46.68;101142.91;4965062;28;61773;-77
2022/04/02 00:13:36;;;;;;;;;11.00;9.00;;;;;8.57;46.55;101134.16;4964552;28;61900;-77
2022/04/02 00:16:02;;;;;;;;;6.00;5.00;;;;;8.59;46.29;101130.81;4966258;28;61873;-77
2022/04/02 00:18:29;;;;;;;;;5.25;4.25;;;;;8.53;45.27;101143.53;4963976;28;63924;-77
2022/04/02 00:20:55;;;;;;;;;10.75;7.00;;;;;8.50;45.96;101143.34;4966079;28;61851;-77
2022/04/02 00:23:36;;;;;;;;;8.25;6.50;;;;;8.47;45.32;101135.31;4969576;28;61779;-77
2022/04/02 00:26:02;;;;;;;;;9.25;5.00;;;;;8.50;45.13;101142.44;4964878;28;62212;-77
2022/04/02 00:28:31;;;;;;;;;5.50;5.25;;;;;8.54;44.65;101142.72;4965107;28;62676;-77
2022/04/02 00:30:57;;;;;;;;;6.50;5.25;;;;;8.55;45.26;101138.41;4965775;28;61937;-77
2022/04/02 00:33:24;;;;;;;;;9.50;8.00;;;;;8.56;44.10;101140.19;4965860;28;61782;-77
2022/04/02 00:35:49;;;;;;;;;4.00;4.00;;;;;8.62;45.60;101135.31;4964638;28;62207;-77
2022/04/02 00:38:14;;;;;;;;;8.00;6.50;;;;;8.62;44.40;101134.44;4947703;28;63565;-77
2022/04/02 00:40:42;;;;;;;;;2.00;2.00;;;;;8.60;44.09;101135.22;4965260;28;61749;-77
2022/04/02 00:43:31;;;;;;;;;4.00;3.00;;;;;8.62;44.59;101135.31;4965916;28;61770;-77
2022/04/02 00:46:00;;;;;;;;;7.50;5.50;;;;;8.63;44.68;101136.22;4965964;28;61893;-77
2022/04/02 00:48:27;;;;;;;;;4.50;4.50;;;;;8.57;44.17;101137.69;4964972;28;61691;-77
2022/04/02 00:50:56;;;;;;;;;5.50;4.00;;;;;8.58;44.12;101133.34;4948054;28;61853;-77
2022/04/02 00:53:30;;;;;;;;;5.00;4.00;;;;;8.48;42.99;101131.88;4965655;28;62028;-77
2022/04/02 00:55:56;;;;;;;;;6.50;5.00;;;;;8.54;44.33;101132.25;4965912;28;62061;-77
2022/04/02 00:58:21;;;;;;;;;5.00;4.00;;;;;8.59;44.18;101130.81;4963607;28;64952;-77
2022/04/02 01:00:46;;;;;;;;;4.75;4.50;;;;;8.59;43.56;101136.06;4963792;28;61847;-77
2022/04/02 01:03:13;;;;;;;;;6.00;5.00;;;;;8.60;43.69;101134.31;4964334;28;61830;-77
2022/04/02 01:05:39;;;;;;;;;5.50;4.25;;;;;8.61;44.04;101130.88;4947758;28;62102;-77
2022/04/02 01:08:05;;;;;;;;;8.00;4.00;;;;;8.63;44.09;101138.81;4964738;28;62009;-77
2022/04/02 01:10:36;;;;;;;;;5.25;4.00;;;;;8.57;43.84;101134.16;4965423;28;61912;-77
2022/04/02 01:13:02;;;;;;;;;5.00;3.00;;;;;8.49;44.30;101135.44;4965431;28;62120;-77
2022/04/02 01:15:27;;;;;;;;;5.25;3.50;;;;;8.47;43.43;101131.81;4947398;28;62241;-77
2022/04/02 01:17:53;;;;;;;;;8.25;6.00;;;;;8.41;43.68;101139.31;4964576;28;61969;-77
2022/04/02 01:20:19;;;;;;;;;2.00;2.00;;;;;8.44;44.04;101123.78;4965168;28;61877;-77
2022/04/02 01:22:45;;;;;;;;;4.50;4.00;;;;;8.44;43.77;101116.84;4968632;28;61851;-77
2022/04/02 01:25:11;;;;;;;;;3.50;3.50;;;;;8.38;43.82;101127.81;4965511;28;61688;-77
2022/04/02 01:27:37;;;;;;;;;4.50;2.00;;;;;8.35;43.63;101129.34;4964428;28;61824;-77
2022/04/02 01:30:03;;;;;;;;;4.50;1.75;;;;;8.29;42.96;101126.34;4964496;28;61901;-77
2022/04/02 01:32:29;;;;;;;;;2.50;2.50;;;;;8.29;44.17;101123.75;4963701;28;61678;-77
2022/04/02 01:34:54;;;;;;;;;5.00;5.00;;;;;8.26;43.74;101126.19;4965062;28;62454;-77
2022/04/02 01:37:20;;;;;;;;;4.00;4.00;;;;;8.18;43.74;101137.09;4963157;28;63743;-77
2022/04/02 01:39:45;;;;;;;;;4.00;4.00;;;;;8.15;43.70;101128.16;4947021;28;61945;-77
2022/04/02 01:42:12;;;;;;;;;5.50;5.50;;;;;8.17;43.63;101137.00;4964937;28;62015;-77
2022/04/02 01:44:37;;;;;;;;;3.25;3.00;;;;;8.08;44.00;101131.25;4947393;28;62344;-77
2022/04/02 01:47:03;;;;;;;;;4.00;4.00;;;;;8.10;43.59;101140.06;4962595;28;63537;-77
2022/04/02 01:49:28;;;;;;;;;5.00;5.00;;;;;8.07;43.84;101146.00;4964587;28;61880;-77
2022/04/02 01:51:54;;;;;;;;;6.00;4.00;;;;;7.99;43.65;101149.88;4964810;28;61884;-77
2022/04/02 01:54:20;;;;;;;;;4.00;2.00;;;;;8.00;43.92;101156.91;4964830;28;61935;-77
2022/04/02 01:56:49;;;;;;;;;5.00;3.25;;;;;7.99;43.90;101144.66;4964036;28;61742;-77
2022/04/02 01:59:14;;;;;;;;;4.00;4.00;;;;;7.93;43.77;101149.50;4964619;28;61934;-77
2022/04/02 02:01:40;;;;;;;;;8.00;5.00;;;;;7.90;44.25;101154.53;4964289;28;61940;-77
2022/04/02 02:04:06;;;;;;;;;5.75;4.75;;;;;7.92;43.72;101153.81;4964825;28;61816;-77
2022/04/02 02:06:33;;;;;;;;;5.00;5.00;;;;;7.94;44.44;101172.22;4964176;28;62004;-77
2022/04/02 02:08:59;;;;;;;;;3.50;3.50;;;;;7.90;43.80;101157.16;4963963;28;61765;-77
2022/04/02 02:11:25;;;;;;;;;6.25;5.00;;;;;7.77;44.27;101159.00;4947164;28;61943;-77
2022/04/02 02:13:52;;;;;;;;;4.25;4.25;;;;;7.72;44.19;101163.06;4964433;28;62162;-77
2022/04/02 02:16:18;;;;;;;;;5.00;4.00;;;;;7.76;44.38;101164.16;4961861;28;63542;-77
2022/04/02 02:18:44;;;;;;;;;8.25;5.00;;;;;7.70;44.71;101164.66;4964318;28;62020;-77
2022/04/02 02:21:10;;;;;;;;;6.25;3.00;;;;;7.74;44.39;101166.66;4964441;28;62009;-77
2022/04/02 02:23:35;;;;;;;;;4.00;4.00;;;;;7.75;44.32;101163.22;4966511;28;61919;-77
2022/04/02 02:26:01;;;;;;;;;6.25;5.00;;;;;7.70;44.62;101167.28;4963652;28;62143;-77
2022/04/02 02:28:26;;;;;;;;;1.75;1.75;;;;;7.67;44.21;101171.41;4963554;28;62149;-77
2022/04/02 02:30:52;;;;;;;;;6.50;5.00;;;;;7.65;44.17;101175.63;4963452;28;61848;-77
2022/04/02 02:36:02;;;;;;;;;6.25;5.00;;;;;7.63;44.62;101172.94;4963488;28;61883;-77
2022/04/02 02:38:27;;;;;;;;;7.00;5.00;;;;;7.54;44.18;101173.28;4964008;28;61813;-77
2022/04/02 02:40:53;;;;;;;;;8.50;6.25;;;;;7.43;44.37;101174.28;4963695;28;62480;-77
2022/04/02 02:43:20;;;;;;;;;6.25;5.00;;;;;7.43;44.64;101174.28;4962825;28;62127;-77
2022/04/02 02:45:45;;;;;;;;;5.75;5.75;;;;;7.45;44.66;101183.13;4961564;28;63722;-77
2022/04/02 02:48:11;;;;;;;;;6.25;4.25;;;;;7.45;44.84;101183.13;4963775;28;62127;-77
2022/04/02 02:50:37;;;;;;;;;5.00;5.00;;;;;7.45;45.45;101179.63;4946327;28;61807;-77
2022/04/02 02:53:04;;;;;;;;;7.25;5.00;;;;;7.36;45.35;101191.28;4946494;28;61734;-77
2022/04/02 02:55:29;;;;;;;;;6.25;5.75;;;;;7.33;45.04;101187.59;4963242;28;61863;-77
2022/04/02 02:57:55;;;;;;;;;5.00;5.00;;;;;7.31;45.40;101192.72;4963945;28;61786;-77
2022/04/02 03:00:20;;;;;;;;;6.00;5.25;;;;;7.34;45.60;101195.50;4961728;28;61854;-77
2022/04/02 03:02:46;;;;;;;;;5.25;5.00;;;;;7.26;45.24;101195.81;4963866;28;62146;-77
2022/04/02 03:05:14;;;;;;;;;4.50;4.50;;;;;7.20;45.33;101191.13;4945455;28;63950;-77
2022/04/02 03:07:59;;;;;;;;;4.25;3.50;;;;;7.23;45.66;101193.03;4963731;28;61759;-77
2022/04/02 03:10:26;;;;;;;;;8.25;4.75;;;;;7.24;45.84;101198.34;4946187;28;61826;-77
2022/04/02 03:12:54;;;;;;;;;8.00;5.00;;;;;7.25;45.62;101197.53;4963788;28;61916;-77
2022/04/02 03:15:21;;;;;;;;;4.25;4.25;;;;;7.22;45.34;101199.03;4962120;28;62182;-77
2022/04/02 03:17:48;;;;;;;;;4.00;1.75;;;;;7.19;45.23;101204.97;4963522;28;61880;-77
2022/04/02 03:20:17;;;;;;;;;6.00;5.25;;;;;7.14;45.32;101201.16;4963171;28;62072;-77
2022/04/02 03:22:44;;;;;;;;;8.00;5.50;;;;;7.10;45.19;101204.38;4946060;28;62172;-77
2022/04/02 03:25:13;;;;;;;;;7.25;4.50;;;;;7.15;45.66;101201.28;4962718;28;61828;-77
2022/04/02 03:27:40;;;;;;;;;8.50;7.50;;;;;7.12;46.03;101208.88;4945884;28;61816;-77
2022/04/02 03:30:09;;;;;;;;;6.00;6.00;;;;;7.17;45.62;101202.25;4961476;28;62023;-77
2022/04/02 03:32:34;;;;;;;;;6.75;5.00;;;;;7.20;46.20;101208.47;4963478;28;61885;-77
2022/04/02 03:35:00;;;;;;;;;5.00;5.00;;;;;7.14;45.93;101204.69;4962561;28;61873;-77
2022/04/02 03:37:25;;;;;;;;;5.00;5.00;;;;;7.07;45.47;101209.38;4963216;28;61965;-77
2022/04/02 03:39:52;;;;;;;;;5.50;5.50;;;;;7.11;46.23;101206.19;4945493;28;61940;-77
2022/04/02 03:42:18;;;;;;;;;7.75;6.50;;;;;7.11;46.15;101212.31;4963207;28;62146;-77
2022/04/02 03:44:44;;;;;;;;;5.50;5.25;;;;;7.11;45.95;101208.78;4962106;28;62850;-77
2022/04/02 03:47:10;;;;;;;;;7.00;6.00;;;;;7.09;46.00;101207.78;4945157;28;62194;-77
2022/04/02 03:49:40;;;;;;;;;9.00;8.00;;;;;7.10;45.99;101209.59;4963072;28;62068;-77
2022/04/02 03:52:08;;;;;;;;;9.00;6.50;;;;;7.03;45.98;101217.84;4963258;28;62219;-77
2022/04/02 03:54:38;;;;;;;;;4.25;4.25;;;;;6.97;46.41;101215.72;4962400;28;61931;-77
2022/04/02 03:57:05;;;;;;;;;7.50;7.50;;;;;6.89;46.22;101219.53;4961633;28;61969;-77
2022/04/02 03:59:31;;;;;;;;;8.75;7.00;;;;;6.95;46.54;101219.94;4962688;28;62076;-77
2022/04/02 04:01:57;;;;;;;;;8.00;7.00;;;;;6.92;46.46;101222.31;4963109;28;61923;-77
2022/04/02 04:04:24;;;;;;;;;7.50;6.00;;;;;6.87;46.64;101223.75;4962161;28;61956;-77
2022/04/02 04:06:50;;;;;;;;;5.75;5.75;;;;;6.87;46.68;101216.81;4963001;28;62007;-77
2022/04/02 04:09:16;;;;;;;;;8.00;7.50;;;;;6.90;46.55;101219.66;4961198;28;61857;-77
2022/04/02 04:11:42;;;;;;;;;11.00;9.25;;;;;6.89;46.42;101219.53;4978089;28;61827;-77
2022/04/02 04:14:07;;;;;;;;;8.00;6.75;;;;;6.88;46.67;101222.97;4961838;28;61837;-77
2022/04/02 04:16:33;;;;;;;;;11.50;7.00;;;;;6.86;46.40;101219.34;4945100;28;61740;-77
2022/04/02 04:18:58;;;;;;;;;8.00;8.00;;;;;6.83;46.77;101232.16;4962811;28;61953;-77
2022/04/02 04:21:24;;;;;;;;;8.00;7.00;;;;;6.83;46.67;101240.00;4962805;28;62270;-77
2022/04/02 04:23:51;;;;;;;;;8.50;6.75;;;;;6.80;46.79;101239.81;4965695;28;62018;-77
2022/04/02 04:26:17;;;;;;;;;8.00;8.00;;;;;6.75;46.97;101237.78;4962717;28;61947;-77
2022/04/02 04:28:43;;;;;;;;;5.00;5.00;;;;;6.70;47.25;101236.56;4962240;28;61790;-77
2022/04/02 04:31:09;;;;;;;;;13.50;7.50;;;;;6.65;47.64;101239.69;4945285;28;62035;-77
2022/04/02 04:33:37;;;;;;;;;9.33;7.67;;;;;6.68;47.36;101251.19;4961825;28;61850;-77
2022/04/02 04:36:03;;;;;;;;;11.50;8.00;;;;;6.63;47.50;101251.72;4962489;28;61813;-77
2022/04/02 04:38:30;;;;;;;;;8.25;7.25;;;;;6.59;47.59;101258.41;4962474;28;61647;-77
2022/04/02 04:40:55;;;;;;;;;15.50;8.25;;;;;6.63;47.31;101254.31;4962285;28;61986;-77
2022/04/02 04:43:21;;;;;;;;;10.00;7.25;;;;;6.62;47.68;101255.09;4961969;28;62853;-77
2022/04/02 04:45:46;;;;;;;;;11.75;5.50;;;;;6.60;47.50;101249.81;4962171;28;62116;-77
2022/04/02 04:48:12;;;;;;;;;10.50;8.75;;;;;6.65;47.28;101261.44;4961098;28;62426;-77
2022/04/02 04:50:38;;;;;;;;;9.75;9.75;;;;;6.64;47.59;101259.66;4962686;28;61948;-77
2022/04/02 04:53:03;;;;;;;;;6.25;5.50;;;;;6.53;46.97;101263.22;4965289;28;62415;-77
2022/04/02 04:55:29;;;;;;;;;10.75;8.00;;;;;6.61;47.47;101274.19;4964043;28;61832;-77
2022/04/02 04:57:57;;;;;;;;;8.75;7.25;;;;;6.63;47.41;101277.78;4965961;28;61876;-77
2022/04/02 05:00:24;;;;;;;;;8.00;7.25;;;;;6.63;47.53;101270.88;4965416;28;62064;-77
2022/04/02 05:02:49;;;;;;;;;10.33;8.00;;;;;6.62;47.22;101283.78;4964921;28;61726;-77
2022/04/02 05:05:15;;;;;;;;;8.25;8.25;;;;;6.62;47.34;101282.13;4964157;28;61910;-77
2022/04/02 05:07:41;;;;;;;;;5.00;5.00;;;;;6.64;47.38;101287.41;4947673;28;61755;-77
2022/04/02 05:10:08;;;;;;;;;8.75;7.00;;;;;6.58;47.62;101287.91;4964075;28;62288;-77
2022/04/02 05:12:35;;;;;;;;;6.75;5.00;;;;;6.54;47.72;101291.13;4963484;28;63632;-77
2022/04/02 05:15:01;;;;;;;;;6.50;5.50;;;;;6.59;47.08;101294.03;4965053;28;61866;-77
2022/04/02 05:17:27;;;;;;;;;7.67;6.33;;;;;6.58;47.08;101297.41;4965430;28;61848;-77
2022/04/02 05:19:53;;;;;;;;;8.67;8.00;;;;;6.64;47.60;101303.06;4966665;28;62007;-77
2022/04/02 05:22:18;;;;;;;;;5.00;4.00;;;;;6.56;47.03;101299.94;4967661;28;61812;-77
2022/04/02 05:24:44;;;;;;;;;11.25;9.00;;;;;6.54;47.18;101304.16;4964925;28;62266;-77
2022/04/02 05:27:09;;;;;;;;;8.33;8.33;;;;;6.56;47.30;101310.38;4964037;28;61864;-77
2022/04/02 05:29:35;;;;;;;;;8.67;8.00;;;;;6.54;47.58;101312.88;4965108;28;61985;-77
2022/04/02 05:32:02;;;;;;;;;11.25;9.25;;;;;6.54;47.41;101315.47;4964178;28;62683;-77
2022/04/02 05:34:28;;;;;;;;;11.50;9.50;;;;;6.53;47.27;101315.38;4965117;28;62008;-77
2022/04/02 05:36:53;;;;;;;;;12.75;10.75;;;;;6.52;47.61;101321.41;4964873;28;61972;-77
2022/04/02 05:39:19;;;;;;;;;10.67;10.67;;;;;6.41;47.58;101315.44;4964130;28;61868;-77
2022/04/02 05:41:46;;;;;;;;;11.50;9.50;;;;;6.40;47.60;101320.53;4964086;28;61900;-77
2022/04/02 05:44:11;;;;;;;;;7.67;7.67;;;;;6.39;47.60;101311.81;4963464;28;61957;-77
2022/04/02 05:46:37;;;;;;;;;8.00;7.50;;;;;6.40;47.85;101318.84;4964810;28;61907;-77
2022/04/02 05:49:03;;;;;;;;;8.00;8.00;;;;;6.42;47.67;101326.78;4964930;28;62132;-77
2022/04/02 05:51:29;;;;;;;;;14.67;11.00;;;;;6.48;47.51;101328.09;4946722;28;65102;-77
2022/04/02 05:53:54;;;;;;;;;9.33;5.67;;;;;6.43;47.50;101329.50;4964234;28;61702;-77
2022/04/02 05:56:22;;;;;;;;;7.33;5.67;;;;;6.46;47.60;101339.22;4964869;28;61912;-77
2022/04/02 05:58:48;;;;;;;;;8.00;8.00;;;;;6.54;47.60;101338.06;4963267;28;62210;-77
2022/04/02 06:01:14;;;;;;;;;8.00;7.00;;;;;6.55;47.64;101332.97;4946578;28;64040;-77
2022/04/02 06:03:40;;;;;;;;;9.00;7.75;;;;;6.54;47.77;101338.06;4963414;28;61974;-77
2022/04/02 06:06:07;;;;;;;;;8.50;5.50;;;;;6.52;47.60;101335.34;4964488;28;61797;-77
2022/04/02 06:08:33;;;;;;;;;8.67;7.00;;;;;6.56;47.96;101344.28;4964416;28;61918;-77
2022/04/02 06:10:58;;;;;;;;;7.00;7.00;;;;;6.58;47.37;101350.53;4963585;28;62811;-77
2022/04/02 06:13:24;;;;;;;;;10.00;5.67;;;;;6.59;47.62;101343.59;4964414;28;61946;-77
2022/04/02 06:15:49;;;;;;;;;10.67;7.67;;;;;6.62;47.81;101344.72;4946577;28;61885;-77
2022/04/02 06:18:18;;;;;;;;;13.00;7.67;;;;;6.69;47.54;101346.94;4964664;28;61745;-77
2022/04/02 06:20:45;;;;;;;;;8.00;8.00;;;;;6.73;47.76;101353.28;4945944;28;63890;-77
2022/04/02 06:23:11;;;;;;;;;12.00;9.67;;;;;6.76;47.84;101359.59;4967408;28;62350;-77
2022/04/02 06:25:36;;;;;;;;;10.67;8.00;;;;;6.73;47.93;101362.00;4946526;28;61783;-77
2022/04/02 06:28:02;;;;;;;;;21.33;21.33;;;;;6.83;47.76;101358.31;4963728;28;61841;-77
2022/04/02 06:30:27;;;;;;;;;12.00;9.33;;;;;6.78;47.84;101359.72;4961508;28;63810;-77
2022/04/02 06:32:54;;;;;;;;;8.25;8.25;;;;;6.87;47.63;101369.88;4962681;28;61678;-78
2022/04/02 06:35:19;;;;;;;;;8.67;7.33;;;;;6.92;47.29;101361.56;4963390;28;61965;-78
2022/04/02 06:37:47;;;;;;;;;9.25;6.00;;;;;7.01;47.30;101363.91;4963254;28;61780;-78
2022/04/02 06:40:13;;;;;;;;;10.00;8.00;;;;;6.99;47.25;101370.72;4963234;28;61911;-79
2022/04/02 06:42:38;;;;;;;;;11.67;7.00;;;;;7.09;47.67;101367.00;4967287;28;61351;-78
2022/04/02 06:45:04;;;;;;;;;9.67;5.67;;;;;7.25;47.61;101367.25;4962675;28;61965;-79
2022/04/02 06:47:32;;;;;;;;;8.50;8.50;;;;;7.46;46.87;101373.00;4977851;28;62619;-78
2022/04/02 06:50:01;;;;;;;;;8.00;7.00;;;;;7.63;46.62;101378.44;4963218;28;62504;-80
2022/04/02 06:52:27;;;;;;;;;12.00;8.33;;;;;7.96;46.14;101370.16;4963503;28;61923;-79
2022/04/02 06:54:52;;;;;;;;;9.00;9.00;;;;;8.29;45.47;101373.13;4961179;28;61906;-79
2022/04/02 06:57:19;;;;;;;;;11.75;10.00;;;;;8.59;44.81;101378.47;4963319;28;61931;-80
2022/04/02 06:59:45;;;;;;;;;9.00;8.00;;;;;8.86;44.28;101383.59;4963048;28;61826;-80
2022/04/02 07:02:10;;;;;;;;;6.00;6.00;;;;;9.14;44.17;101375.69;4962924;28;62078;-80
2022/04/02 07:04:36;;;;;;;;;7.50;6.00;;;;;9.33;43.10;101386.44;4963240;28;61805;-79
2022/04/02 07:07:01;;;;;;;;;9.25;8.25;;;;;9.78;42.96;101389.03;4962776;28;62156;-81
2022/04/02 07:09:27;;;;;;;;;6.50;6.00;;;;;10.19;42.74;101388.72;4961818;28;61993;-80
2022/04/02 07:11:52;;;;;;;;;9.50;7.25;;;;;10.35;41.19;101381.75;4962223;28;62271;-78
2022/04/02 07:14:18;;;;;;;;;7.50;6.50;;;;;10.72;41.42;101389.00;4960630;28;61794;-79
2022/04/02 07:16:43;;;;;;;;;6.00;5.00;;;;;11.18;40.48;101387.06;4961510;28;62051;-80
2022/04/02 07:19:10;;;;;;;;;7.50;6.25;;;;;11.64;40.22;101393.72;4961290;28;62453;-80
2022/04/02 07:21:35;;;;;;;;;10.25;6.25;;;;;11.70;39.12;101380.91;4959612;28;61845;-79
2022/04/02 07:24:02;;;;;;;;;8.00;6.75;;;;;11.84;39.30;101389.44;4963329;28;62137;-80
2022/04/02 07:26:31;;;;;;;;;9.75;9.25;;;;;12.11;38.12;101389.91;4963180;28;62068;-80
2022/04/02 07:28:56;;;;;;;;;6.00;6.00;;;;;12.53;37.58;101389.22;4963235;28;62885;-78
2022/04/02 07:31:21;;;;;;;;;8.50;7.00;;;;;12.42;38.07;101392.25;4963874;28;61386;-78
2022/04/02 07:33:47;;;;;;;;;7.00;6.00;;;;;12.07;37.58;101395.88;4963342;28;62214;-78
2022/04/02 07:36:27;;;;;;;;;5.00;3.00;;;;;11.85;37.57;101399.16;4961301;28;62135;-78
2022/04/02 07:39:11;;;;;;;;;6.00;6.00;;;;;11.78;39.06;101389.13;4977125;28;63881;-78
2022/04/02 07:41:48;;;;;;;;;4.50;3.00;;;;;11.48;38.00;101401.66;4962591;28;62034;-82
2022/04/02 07:44:29;;;;;;;;;5.75;5.75;;;;;11.30;38.49;101399.91;4961402;28;61897;-81
2022/04/02 07:46:57;;;;;;;;;5.00;5.00;;;;;11.20;39.20;101411.69;4974458;28;62048;-81
2022/04/02 07:49:26;;;;;;;;;6.00;6.00;;;;;10.95;38.32;101400.72;4959079;28;63671;-79
2022/04/02 07:51:54;;;;;;;;;6.75;6.75;;;;;10.99;39.58;101408.84;4961559;28;61988;-78
2022/04/02 07:54:24;;;;;;;;;5.50;2.50;;;;;10.93;39.91;101408.50;4959904;28;62034;-79
2022/04/02 07:56:57;;;;;;;;;5.50;5.50;;;;;10.94;39.52;101412.03;4959380;28;61837;-78
2022/04/02 07:59:30;;;;;;;;;6.25;5.25;;;;;10.93;38.83;101416.41;4958754;28;64272;-79
2022/04/02 08:01:56;;;;;;;;;10.25;7.00;;;;;10.98;39.10;101421.88;4959120;28;62261;-79
2022/04/02 08:04:24;;;;;;;;;8.00;5.00;;;;;11.08;39.91;101418.94;4959391;28;61827;-79
2022/04/02 08:06:52;;;;;;;;;5.50;5.50;;;;;11.13;39.62;101420.06;4960499;28;61747;-78
2022/04/02 08:09:19;;;;;;;;;5.50;4.25;;;;;11.11;39.27;101421.69;4957616;28;61924;-78
2022/04/02 08:11:48;;;;;;;;;5.75;5.50;;;;;11.06;38.94;101415.31;4959463;28;61992;-78
2022/04/02 08:14:14;;;;;;;;;6.25;4.50;;;;;11.03;38.26;101421.31;4942920;28;61977;-78
2022/04/02 08:16:43;;;;;;;;;10.25;7.00;;;;;11.00;36.91;101420.25;4960018;28;62488;-78
2022/04/02 08:19:11;;;;;;;;;5.75;3.50;;;;;11.04;37.72;101411.69;4958254;28;62057;-79
2022/04/02 08:21:37;;;;;;;;;5.00;5.00;;;;;11.08;38.26;101421.56;4960869;28;61778;-75
2022/04/02 08:24:03;;;;;;;;;7.00;7.00;;;;;11.15;37.85;101422.78;4960486;28;61821;-76
2022/04/02 08:27:00;;;;;;;;;5.00;3.00;;;;;11.09;37.11;101431.22;4961019;28;61879;-77
2022/04/02 08:29:43;;;;;;;;;4.75;4.50;;;;;11.09;37.07;101430.34;4945208;28;63839;-77
2022/04/02 08:32:28;;;;;;;;;1.00;1.00;;;;;11.12;36.97;101427.84;4976141;28;62047;-77
2022/04/02 08:35:03;;;;;;;;;6.25;6.00;;;;;11.11;37.08;101431.31;4961554;28;61907;-77
2022/04/02 08:37:48;;;;;;;;;4.50;4.50;;;;;11.18;37.93;101436.06;4964125;28;62180;-77
2022/04/02 08:40:22;;;;;;;;;3.00;3.00;;;;;11.26;36.84;101435.63;4961193;28;62102;-77
2022/04/02 08:43:09;;;;;;;;;4.50;4.50;;;;;11.20;36.46;101440.59;4964096;28;62073;-77
2022/04/02 08:45:55;;;;;;;;;7.00;2.50;;;;;11.26;37.43;101435.63;4962264;28;61990;-77
2022/04/02 08:48:26;;;;;;;;;8.00;5.00;;;;;11.23;36.86;101438.13;4977128;28;61985;-76
2022/04/02 08:51:04;;;;;;;;;7.75;3.00;;;;;11.25;37.27;101440.84;4947148;28;63827;-76
2022/04/02 08:53:50;;;;;;;;;3.00;3.00;;;;;11.26;36.79;101437.38;4965232;28;61793;-77
2022/04/02 08:56:28;;;;;;;;;2.00;2.00;;;;;11.40;37.02;101440.72;4965419;28;61777;-77
2022/04/02 08:59:07;;;;;;;;;5.75;5.75;;;;;11.46;37.42;101436.69;4965338;28;61953;-76
2022/04/02 09:01:45;;;;;;;;;4.00;4.00;;;;;11.53;36.11;101444.88;4964035;28;61953;-77
2022/04/02 09:04:48;;;;;;;;;3.00;3.00;;;;;11.48;37.09;101449.88;4946668;28;61962;-77
2022/04/02 09:07:41;;;;;;;;;3.25;2.75;;;;;11.50;35.25;101448.22;4963436;28;62310;-77
2022/04/02 09:10:27;;;;;;;;;7.00;6.00;;;;;11.56;36.94;101440.66;4965102;28;61860;-77
2022/04/02 09:13:08;;;;;;;;;6.00;3.00;;;;;11.48;35.90;101444.63;4962834;28;63740;-77
2022/04/02 09:16:04;;;;;;;;;5.50;5.50;;;;;11.47;36.60;101450.72;4964316;28;61869;-77
2022/04/02 09:18:33;;;;;;;;;5.25;5.25;;;;;11.52;36.10;101453.59;4963218;28;61744;-77
2022/04/02 09:21:14;;;;;;;;;5.75;5.75;;;;;11.62;37.19;101459.38;4965394;28;61883;-77
2022/04/02 09:23:39;;;;;;;;;6.00;6.00;;;;;11.75;36.24;101446.88;4981080;28;61810;-77
2022/04/02 09:26:38;;;;;;;;;7.00;3.00;;;;;11.79;36.77;101440.94;4983208;28;62353;-77
2022/04/02 09:29:25;;;;;;;;;5.25;3.00;;;;;11.93;36.54;101449.53;4963488;28;62003;-78
2022/04/02 09:31:53;;;;;;;;;3.50;2.50;;;;;12.04;36.05;101448.34;4950390;28;62134;-77
2022/04/02 09:34:24;;;;;;;;;6.25;4.75;;;;;12.19;36.72;101443.84;4951037;28;61743;-76
2022/04/02 09:37:15;;;;;;;;;1.50;1.50;;;;;12.27;36.15;101442.47;4962848;28;61882;-79
2022/04/02 09:40:10;;;;;;;;;2.75;2.75;;;;;12.40;36.51;101451.88;4977020;28;61770;-80
2022/04/02 09:42:42;;;;;;;;;5.00;5.00;;;;;12.40;34.58;101450.94;4969577;28;61718;-78
2022/04/02 09:45:13;;;;;;;;;7.50;6.25;;;;;12.41;35.42;101455.41;4947544;28;63977;-77
2022/04/02 09:47:51;;;;;;;;;3.00;3.00;;;;;12.21;33.87;101452.72;4963672;28;61810;-77
2022/04/02 09:50:24;;;;;;;;;5.50;2.50;;;;;12.17;34.66;101452.47;4964529;28;61949;-76
2022/04/02 09:52:54;;;;;;;;;5.00;3.00;;;;;12.47;36.43;101446.03;4964370;28;62357;-75
2022/04/02 09:55:38;;;;;;;;;3.00;3.00;;;;;12.81;33.43;101455.53;4963746;28;62119;-77
2022/04/02 09:58:41;;;;;;;;;5.75;4.50;;;;;13.12;33.38;101445.47;4964349;28;61911;-77
2022/04/02 10:01:18;;;;;;;;;4.25;2.25;;;;;13.33;33.97;101438.53;4962834;28;61826;-76
2022/04/02 10:04:02;;;;;;;;;7.00;6.75;;;;;13.45;33.53;101449.63;4962854;28;62635;-77
2022/04/02 10:06:35;;;;;;;;;5.25;5.00;;;;;13.45;32.68;101431.16;4962303;28;61875;-77
2022/04/02 10:09:11;;;;;;;;;5.50;3.75;;;;;13.40;33.02;101434.44;4964347;28;61867;-80
2022/04/02 10:11:58;;;;;;;;;6.75;4.75;;;;;13.21;32.51;101453.78;4963457;28;62071;-78
2022/04/02 10:14:29;;;;;;;;;9.50;4.00;;;;;13.14;32.81;101463.16;4963892;28;61936;-78
2022/04/02 10:16:58;;;;;;;;;3.00;3.00;;;;;13.04;32.76;101456.56;4961464;28;64763;-78
2022/04/02 10:19:30;;;;;;;;;7.75;7.75;;;;;13.07;33.26;101456.72;4963835;28;62042;-76
2022/04/02 10:22:04;;;;;;;;;6.25;6.00;;;;;13.23;32.52;101452.13;4963955;28;61912;-77
2022/04/02 10:24:45;;;;;;;;;4.75;4.75;;;;;13.37;32.21;101448.38;4961679;28;62007;-76
2022/04/02 10:27:17;;;;;;;;;6.00;5.00;;;;;13.48;31.51;101455.03;4972968;28;64051;-75
2022/04/02 10:30:02;;;;;;;;;5.25;2.75;;;;;13.56;30.57;101434.28;4975461;28;61978;-75
2022/04/02 10:32:30;;;;;;;;;5.75;4.25;;;;;13.63;29.82;101430.16;4963511;28;62008;-76
2022/04/02 10:35:03;;;;;;;;;3.75;3.50;;;;;13.85;32.71;101450.41;4963305;28;61746;-76
2022/04/02 10:37:52;;;;;;;;;4.00;3.00;;;;;13.88;32.49;101447.88;4962989;28;61949;-76
2022/04/02 10:40:19;;;;;;;;;6.00;6.00;;;;;13.64;34.08;101453.03;4963473;28;62030;-76
2022/04/02 10:43:06;;;;;;;;;3.75;3.75;;;;;13.55;34.29;101463.22;4946335;28;62144;-76
2022/04/02 10:45:39;;;;;;;;;3.75;3.75;;;;;13.45;33.73;101453.97;4963300;28;61801;-76
2022/04/02 10:48:10;;;;;;;;;7.75;5.00;;;;;13.32;32.03;101455.19;4962876;28;63049;-77
2022/04/02 10:50:38;;;;;;;;;2.00;2.00;;;;;13.31;30.72;101436.69;4962020;28;62006;-77
2022/04/02 10:53:04;;;;;;;;;3.00;3.00;;;;;13.41;30.92;101444.13;4963661;28;62084;-77
2022/04/02 10:55:32;;;;;;;;;6.50;3.00;;;;;13.55;32.64;101429.81;4963483;28;62058;-77
2022/04/02 10:58:02;;;;;;;;;3.75;3.75;;;;;13.76;31.84;101444.75;4977765;28;63757;-78
2022/04/02 11:00:29;;;;;;;;;5.00;4.00;;;;;13.99;33.73;101449.25;4963395;28;61838;-77
2022/04/02 11:03:04;;;;;;;;;3.00;3.00;;;;;14.24;30.68;101437.03;4961348;28;62813;-77
2022/04/02 11:05:35;;;;;;;;;16.25;13.75;;;;;14.58;30.67;101444.56;4959151;28;61857;-76
2022/04/02 11:08:06;;;;;;;;;6.25;3.75;;;;;14.64;29.49;101442.16;4960617;28;61998;-77
2022/04/02 11:10:35;;;;;;;;;12.75;12.00;;;;;14.53;29.46;101441.72;4943684;28;62059;-77
2022/04/02 11:13:04;;;;;;;;;5.50;3.75;;;;;14.39;30.47;101435.00;4960440;28;61988;-78
2022/04/02 11:15:31;;;;;;;;;3.75;2.50;;;;;14.14;29.07;101430.50;4957831;28;62004;-79
2022/04/02 11:17:59;;;;;;;;;3.00;3.00;;;;;14.14;29.00;101429.56;4958440;28;62671;-79
2022/04/02 11:20:27;;;;;;;;;6.00;6.00;;;;;14.21;29.73;101439.56;4975218;28;61972;-80
2022/04/02 11:23:02;;;;;;;;;6.75;4.00;;;;;14.45;29.63;101434.34;4959989;28;61968;-80
2022/04/02 11:25:31;;;;;;;;;2.25;2.00;;;;;14.77;30.29;101425.03;4960803;28;61749;-78
2022/04/02 11:28:18;;;;;;;;;6.00;3.50;;;;;15.10;30.45;101438.63;4960689;28;63769;-79
2022/04/02 11:31:03;;;;;;;;;3.50;3.25;;;;;15.49;28.17;101434.69;4962683;28;62044;-79
2022/04/02 11:33:32;;;;;;;;;1.00;1.00;;;;;15.78;27.54;101422.47;4961819;28;62181;-78
2022/04/02 11:36:06;;;;;;;;;3.00;2.00;;;;;16.11;29.77;101432.34;4963510;28;62147;-78
2022/04/02 11:39:02;;;;;;;;;1.25;1.25;;;;;16.24;29.42;101429.25;4962617;28;62887;-78
2022/04/02 11:41:34;;;;;;;;;2.00;2.00;;;;;16.20;28.12;101435.31;4950257;28;62019;-78
2022/04/02 11:44:14;;;;;;;;;3.50;3.50;;;;;15.97;30.51;101445.16;4963171;28;61953;-78